createdAt,value
2023-09-04T00:02:02.461Z,15.37
2023-09-04T00:04:30.360Z,15.35
2023-09-04T00:06:58.733Z,15.34
2023-09-04T00:09:26.434Z,15.33
2023-09-04T00:11:54.108Z,15.33
2023-09-04T00:14:23.201Z,15.31
2023-09-04T00:16:50.880Z,15.28
2023-09-04T00:19:18.883Z,15.26
2023-09-04T00:21:46.839Z,15.26
2023-09-04T00:24:14.532Z,15.28
2023-09-04T00:26:42.286Z,15.22
2023-09-04T00:29:10.052Z,15.15
2023-09-04T00:31:39.189Z,15.11
2023-09-04T00:34:06.895Z,15.07
2023-09-04T00:36:34.580Z,14.97
2023-09-04T00:39:02.809Z,14.95
2023-09-04T00:41:30.515Z,14.97
2023-09-04T00:43:58.222Z,14.94
2023-09-04T00:46:26.203Z,14.89
2023-09-04T00:48:55.822Z,14.82
2023-09-04T00:51:23.588Z,14.81
2023-09-04T00:53:51.397Z,14.75
2023-09-04T00:56:19.221Z,14.78
2023-09-04T00:58:47.958Z,14.73
2023-09-04T01:01:15.769Z,14.73
2023-09-04T01:03:43.611Z,14.77
2023-09-04T01:06:12.610Z,14.70
2023-09-04T01:08:40.359Z,14.73
2023-09-04T01:11:11.581Z,14.64
2023-09-04T01:13:42.888Z,14.55
2023-09-04T01:16:10.661Z,14.52
2023-09-04T01:18:38.510Z,14.54
2023-09-04T01:21:08.058Z,14.52
2023-09-04T01:23:35.955Z,14.39
2023-09-04T01:26:11.113Z,14.34
2023-09-04T01:28:42.091Z,14.37
2023-09-04T01:31:15.342Z,14.31
2023-09-04T01:33:44.545Z,14.34
2023-09-04T01:36:15.698Z,14.32
2023-09-04T01:38:45.101Z,14.33
2023-09-04T01:41:12.899Z,14.20
2023-09-04T01:43:40.592Z,14.17
2023-09-04T01:46:08.630Z,14.18
2023-09-04T01:48:37.277Z,14.20
2023-09-04T01:51:04.982Z,14.12
2023-09-04T01:53:34.061Z,14.15
2023-09-04T01:56:01.847Z,14.15
2023-09-04T01:58:29.769Z,14.10
2023-09-04T02:00:57.570Z,14.11
2023-09-04T02:03:25.411Z,14.09
2023-09-04T02:05:53.270Z,14.09
2023-09-04T02:08:21.495Z,14.08
2023-09-04T02:10:51.085Z,14.02
2023-09-04T02:13:19.029Z,13.99
2023-09-04T02:15:46.904Z,14.01
2023-09-04T02:18:14.987Z,14.00
2023-09-04T02:20:42.660Z,13.98
2023-09-04T02:23:10.385Z,13.98
2023-09-04T02:25:38.019Z,13.99
2023-09-04T02:28:07.268Z,13.95
2023-09-04T02:30:38.952Z,13.92
2023-09-04T02:33:06.669Z,13.93
2023-09-04T02:35:35.717Z,13.95
2023-09-04T02:38:03.446Z,13.94
2023-09-04T02:40:31.298Z,13.89
2023-09-04T02:42:58.940Z,13.85
2023-09-04T02:45:28.994Z,13.85
2023-09-04T02:47:57.053Z,13.84
2023-09-04T02:50:24.844Z,13.80
2023-09-04T02:52:52.661Z,13.76
2023-09-04T02:55:20.489Z,13.81
2023-09-04T02:57:48.206Z,13.80
2023-09-04T03:00:16.024Z,13.79
2023-09-04T03:02:45.270Z,13.79
2023-09-04T03:05:13.347Z,13.74
2023-09-04T03:07:41.044Z,13.72
2023-09-04T03:10:09.266Z,13.72
2023-09-04T03:12:37.002Z,13.72
2023-09-04T03:15:06.319Z,13.70
2023-09-04T03:17:36.062Z,13.71
2023-09-04T03:20:09.397Z,13.72
2023-09-04T03:22:37.397Z,13.72
2023-09-04T03:25:05.390Z,13.68
2023-09-04T03:27:34.452Z,13.66
2023-09-04T03:30:03.141Z,13.60
2023-09-04T03:32:31.064Z,13.56
2023-09-04T03:34:59.232Z,13.55
2023-09-04T03:37:28.291Z,13.55
2023-09-04T03:39:56.107Z,13.52
2023-09-04T03:42:24.110Z,13.48
2023-09-04T03:44:51.925Z,13.41
2023-09-04T03:47:19.595Z,13.38
2023-09-04T03:49:47.404Z,13.34
2023-09-04T03:52:15.563Z,13.26
2023-09-04T03:54:44.670Z,13.21
2023-09-04T03:57:14.239Z,13.19
2023-09-04T03:59:42.002Z,13.18
2023-09-04T04:02:09.797Z,13.14
2023-09-04T04:04:37.596Z,13.13
2023-09-04T04:07:09.844Z,13.09
2023-09-04T04:09:37.572Z,13.09
2023-09-04T04:12:07.381Z,13.03
2023-09-04T04:14:35.055Z,12.99
2023-09-04T04:17:03.094Z,12.98
2023-09-04T04:19:30.738Z,12.95
2023-09-04T04:21:58.986Z,12.94
2023-09-04T04:24:28.443Z,12.93
2023-09-04T04:26:56.146Z,12.93
2023-09-04T04:29:25.183Z,12.89
2023-09-04T04:31:53.637Z,12.90
2023-09-04T04:34:21.517Z,12.94
2023-09-04T04:36:52.713Z,12.97
2023-09-04T04:39:20.389Z,12.90
2023-09-04T04:41:48.886Z,12.85
2023-09-04T04:44:16.819Z,12.89
2023-09-04T04:46:48.048Z,12.87
2023-09-04T04:49:16.037Z,12.84
2023-09-04T04:51:43.738Z,12.82
2023-09-04T04:54:11.487Z,12.80
2023-09-04T04:56:40.300Z,12.77
2023-09-04T04:59:08.747Z,12.76
2023-09-04T05:01:36.704Z,12.77
2023-09-04T05:04:06.141Z,12.78
2023-09-04T05:06:35.063Z,12.81
2023-09-04T05:09:03.201Z,12.83
2023-09-04T05:11:32.236Z,12.87
2023-09-04T05:14:01.731Z,12.90
2023-09-04T05:16:29.627Z,12.92
2023-09-04T05:18:57.314Z,13.01
2023-09-04T05:21:26.351Z,13.10
2023-09-04T05:23:54.349Z,13.13
2023-09-04T05:26:22.055Z,13.10
2023-09-04T05:28:49.669Z,13.20
2023-09-04T05:31:17.338Z,13.28
2023-09-04T05:33:45.053Z,13.40
2023-09-04T05:36:12.713Z,13.56
2023-09-04T05:38:41.793Z,13.71
2023-09-04T05:41:09.843Z,14.01
2023-09-04T05:43:37.546Z,14.35
2023-09-04T05:46:05.659Z,14.58
2023-09-04T05:48:35.146Z,14.79
2023-09-04T05:51:03.735Z,15.08
2023-09-04T05:53:32.237Z,15.39
2023-09-04T05:56:08.499Z,15.62
2023-09-04T05:58:36.211Z,15.68
2023-09-04T06:01:03.977Z,15.86
2023-09-04T06:03:32.083Z,16.09
2023-09-04T06:05:59.903Z,16.05
2023-09-04T06:08:27.681Z,16.33
2023-09-04T06:10:56.552Z,16.17
2023-09-04T06:13:25.627Z,16.32
2023-09-04T06:15:53.400Z,16.11
2023-09-04T06:18:21.410Z,16.23
2023-09-04T06:20:49.383Z,16.56
2023-09-04T06:23:17.126Z,17.03
2023-09-04T06:25:45.034Z,17.22
2023-09-04T06:28:12.951Z,17.32
2023-09-04T06:30:42.104Z,17.24
2023-09-04T06:33:09.995Z,17.87
2023-09-04T06:35:38.731Z,18.28
2023-09-04T06:38:06.988Z,17.79
2023-09-04T06:40:34.816Z,17.80
2023-09-04T06:43:02.502Z,18.61
2023-09-04T06:45:30.172Z,18.93
2023-09-04T06:47:59.255Z,19.38
2023-09-04T06:50:27.037Z,18.87
2023-09-04T06:52:54.788Z,18.59
2023-09-04T06:55:22.502Z,18.86
2023-09-04T06:57:50.744Z,19.57
2023-09-04T07:00:18.771Z,19.51
2023-09-04T07:02:47.095Z,19.58
2023-09-04T07:05:18.193Z,19.79
2023-09-04T07:07:48.953Z,19.89
2023-09-04T07:10:16.718Z,20.18
2023-09-04T07:12:44.737Z,20.00
2023-09-04T07:15:12.422Z,20.24
2023-09-04T07:17:40.233Z,20.76
2023-09-04T07:20:08.907Z,20.97
2023-09-04T07:22:38.058Z,21.85
2023-09-04T07:25:06.932Z,22.18
2023-09-04T07:27:34.613Z,22.06
2023-09-04T07:30:02.257Z,21.36
2023-09-04T07:32:30.002Z,21.13
2023-09-04T07:34:58.058Z,20.99
2023-09-04T07:37:26.305Z,21.41
2023-09-04T07:39:55.614Z,21.83
2023-09-04T07:42:23.815Z,22.51
2023-09-04T07:44:51.542Z,21.93
2023-09-04T07:47:19.264Z,22.03
2023-09-04T07:49:46.995Z,21.84
2023-09-04T07:52:14.693Z,22.79
2023-09-04T07:54:42.574Z,22.96
2023-09-04T07:57:11.741Z,22.35
2023-09-04T07:59:39.511Z,23.84
2023-09-04T08:02:07.329Z,24.29
2023-09-04T08:04:35.330Z,24.15
2023-09-04T08:07:03.015Z,23.81
2023-09-04T08:09:30.681Z,24.39
2023-09-04T08:11:58.353Z,23.90
2023-09-04T08:14:27.444Z,23.50
2023-09-04T08:16:55.128Z,23.45
2023-09-04T08:19:22.929Z,23.43
2023-09-04T08:21:50.586Z,23.87
2023-09-04T08:24:18.253Z,24.14
2023-09-04T08:26:46.379Z,24.10
2023-09-04T08:29:14.046Z,23.85
2023-09-04T08:31:43.134Z,24.88
2023-09-04T08:34:10.902Z,23.97
2023-09-04T08:36:39.734Z,24.13
2023-09-04T08:39:07.450Z,23.75
2023-09-04T08:41:36.250Z,23.91
2023-09-04T08:44:05.472Z,24.10
2023-09-04T08:46:33.960Z,23.81
2023-09-04T08:49:04.155Z,24.29
2023-09-04T08:51:32.229Z,23.67
2023-09-04T08:54:01.305Z,24.84
2023-09-04T08:56:32.282Z,26.00
2023-09-04T08:59:00.852Z,24.75
2023-09-04T09:01:33.092Z,24.97
2023-09-04T09:04:01.558Z,25.57
2023-09-04T09:06:31.130Z,25.20
2023-09-04T09:09:00.503Z,25.31
2023-09-04T09:11:28.517Z,24.95
2023-09-04T09:13:56.226Z,24.70
2023-09-04T09:16:24.109Z,24.99
2023-09-04T09:18:55.289Z,24.69
2023-09-04T09:21:24.256Z,24.71
2023-09-04T09:24:06.947Z,25.32
2023-09-04T09:26:36.428Z,25.03
2023-09-04T09:29:05.390Z,25.17
2023-09-04T09:31:33.883Z,25.69
2023-09-04T09:34:02.131Z,25.63
2023-09-04T09:36:30.396Z,26.32
2023-09-04T09:38:58.213Z,26.50
2023-09-04T09:41:27.741Z,26.66
2023-09-04T09:43:57.467Z,26.89
2023-09-04T09:46:26.627Z,26.04
2023-09-04T09:48:54.553Z,25.83
2023-09-04T09:51:22.489Z,26.82
2023-09-04T09:53:50.941Z,26.43
2023-09-04T09:56:19.893Z,27.60
2023-09-04T09:58:48.647Z,27.27
2023-09-04T10:01:18.814Z,26.57
2023-09-04T10:03:48.624Z,26.68
2023-09-04T10:06:17.831Z,26.46
2023-09-04T10:08:46.742Z,26.83
2023-09-04T10:11:15.621Z,27.52
2023-09-04T10:13:47.768Z,27.20
2023-09-04T10:16:18.341Z,27.43
2023-09-04T10:18:46.644Z,27.18
2023-09-04T10:21:16.767Z,27.41
2023-09-04T10:23:46.720Z,27.91
2023-09-04T10:26:17.507Z,27.47
2023-09-04T10:28:50.852Z,28.33
2023-09-04T10:31:21.763Z,27.77
2023-09-04T10:33:51.816Z,27.46
2023-09-04T10:36:21.263Z,28.03
2023-09-04T10:38:51.143Z,27.76
2023-09-04T10:41:19.592Z,27.56
2023-09-04T10:43:47.462Z,27.88
2023-09-04T10:46:17.005Z,27.83
2023-09-04T10:48:46.914Z,27.65
2023-09-04T10:51:29.646Z,28.42
2023-09-04T10:53:58.116Z,29.47
2023-09-04T10:56:26.533Z,28.08
2023-09-04T10:59:00.934Z,28.01
2023-09-04T11:01:36.543Z,28.79
2023-09-04T11:04:06.927Z,28.56
2023-09-04T11:06:39.265Z,28.56
2023-09-04T11:09:07.337Z,27.82
2023-09-04T11:11:37.058Z,28.68
2023-09-04T11:14:07.469Z,28.47
2023-09-04T11:16:39.431Z,28.57
2023-09-04T11:19:10.850Z,28.83
2023-09-04T11:21:39.533Z,27.96
2023-09-04T11:24:07.952Z,28.98
2023-09-04T11:26:35.862Z,28.30
2023-09-04T11:29:04.526Z,28.87
2023-09-04T11:31:33.276Z,29.24
2023-09-04T11:34:01.406Z,28.57
2023-09-04T11:36:29.758Z,28.51
2023-09-04T11:39:07.996Z,29.61
2023-09-04T11:41:36.170Z,28.76
2023-09-04T11:44:06.130Z,29.45
2023-09-04T11:46:34.231Z,28.55
2023-09-04T11:49:02.142Z,29.08
2023-09-04T11:51:31.960Z,29.01
2023-09-04T11:53:59.917Z,28.71
2023-09-04T11:56:27.746Z,28.86
2023-09-04T11:58:55.543Z,29.70
2023-09-04T12:01:23.449Z,29.32
2023-09-04T12:03:54.042Z,29.06
2023-09-04T12:06:26.289Z,29.03
2023-09-04T12:08:55.599Z,29.33
2023-09-04T12:11:24.355Z,29.92
2023-09-04T12:13:51.529Z,29.75
2023-09-04T12:16:19.459Z,29.26
2023-09-04T12:18:46.261Z,29.75
2023-09-04T12:21:15.533Z,29.25
2023-09-04T12:23:46.922Z,29.29
2023-09-04T12:26:17.648Z,29.02
2023-09-04T12:28:45.921Z,29.19
2023-09-04T12:31:14.368Z,29.02
2023-09-04T12:33:42.838Z,28.36
2023-09-04T12:36:11.215Z,27.75
2023-09-04T12:38:39.241Z,28.18
2023-09-04T12:41:08.068Z,28.86
2023-09-04T12:43:37.661Z,28.36
2023-09-04T12:46:05.741Z,28.11
2023-09-04T12:48:33.835Z,28.06
2023-09-04T12:51:01.612Z,28.09
2023-09-04T12:53:29.571Z,28.66
2023-09-04T12:55:57.641Z,28.99
2023-09-04T12:58:25.416Z,28.86
2023-09-04T13:00:56.359Z,28.93
2023-09-04T13:03:25.057Z,28.53
2023-09-04T13:05:53.392Z,29.02
2023-09-04T13:08:21.216Z,29.26
2023-09-04T13:10:49.018Z,28.51
2023-09-04T13:13:16.874Z,28.51
2023-09-04T13:15:44.699Z,28.16
2023-09-04T13:18:13.994Z,28.48
2023-09-04T13:20:42.177Z,27.89
2023-09-04T13:23:10.018Z,28.51
2023-09-04T13:25:37.884Z,27.98
2023-09-04T13:28:06.113Z,28.42
2023-09-04T13:30:34.372Z,28.16
2023-09-04T13:33:02.325Z,28.34
2023-09-04T13:35:31.620Z,28.62
2023-09-04T13:37:59.625Z,28.50
2023-09-04T13:40:27.487Z,28.77
2023-09-04T13:42:55.275Z,28.21
2023-09-04T13:45:23.000Z,29.00
2023-09-04T13:47:51.116Z,28.97
2023-09-04T13:50:19.897Z,28.72
2023-09-04T13:52:48.966Z,29.01
2023-09-04T13:55:16.772Z,28.60
2023-09-04T13:57:44.574Z,29.05
2023-09-04T14:00:12.980Z,28.69
2023-09-04T14:02:40.869Z,28.99
2023-09-04T14:05:09.141Z,29.26
2023-09-04T14:07:38.321Z,28.95
2023-09-04T14:10:08.402Z,28.99
2023-09-04T14:12:36.505Z,29.00
2023-09-04T14:15:04.538Z,28.92
2023-09-04T14:17:32.426Z,28.58
2023-09-04T14:20:00.399Z,28.80
2023-09-04T14:22:31.505Z,28.39
2023-09-04T14:24:59.690Z,29.07
2023-09-04T14:27:28.981Z,28.77
2023-09-04T14:29:58.087Z,28.23
2023-09-04T14:32:26.006Z,28.47
2023-09-04T14:34:54.545Z,27.82
2023-09-04T14:37:22.367Z,27.61
2023-09-04T14:39:50.074Z,27.62
2023-09-04T14:42:18.116Z,27.52
2023-09-04T14:44:47.314Z,27.62
2023-09-04T14:47:15.214Z,27.50
2023-09-04T14:49:43.304Z,27.58
2023-09-04T14:52:11.432Z,27.62
2023-09-04T14:54:39.359Z,27.68
2023-09-04T14:57:07.279Z,27.55
2023-09-04T14:59:35.063Z,27.34
2023-09-04T15:02:04.893Z,27.51
2023-09-04T15:04:32.914Z,27.39
2023-09-04T15:07:00.799Z,27.33
2023-09-04T15:09:28.638Z,27.14
2023-09-04T15:11:56.436Z,27.12
2023-09-04T15:14:24.333Z,27.17
2023-09-04T15:16:52.429Z,26.96
2023-09-04T15:19:21.797Z,26.91
2023-09-04T15:21:49.684Z,26.79
2023-09-04T15:24:18.301Z,26.67
2023-09-04T15:26:46.260Z,26.92
2023-09-04T15:29:14.152Z,26.93
2023-09-04T15:31:42.005Z,26.94
2023-09-04T15:34:13.733Z,26.98
2023-09-04T15:36:43.500Z,27.07
2023-09-04T15:39:11.278Z,27.04
2023-09-04T15:41:39.085Z,26.98
2023-09-04T15:44:08.131Z,26.94
2023-09-04T15:46:36.723Z,26.89
2023-09-04T15:49:04.658Z,26.89
2023-09-04T15:51:32.613Z,26.99
2023-09-04T15:54:01.930Z,26.85
2023-09-04T15:56:29.850Z,26.89
2023-09-04T15:58:57.690Z,26.79
2023-09-04T16:01:25.485Z,26.81
2023-09-04T16:03:53.489Z,26.67
2023-09-04T16:06:21.409Z,26.70
2023-09-04T16:08:50.058Z,26.63
2023-09-04T16:11:19.361Z,26.70
2023-09-04T16:13:47.102Z,26.75
2023-09-04T16:16:15.026Z,26.66
2023-09-04T16:18:43.115Z,26.65
2023-09-04T16:21:10.906Z,26.57
2023-09-04T16:23:38.780Z,26.64
2023-09-04T16:26:07.497Z,26.58
2023-09-04T16:28:36.862Z,26.45
2023-09-04T16:31:05.121Z,26.59
2023-09-04T16:33:33.010Z,26.48
2023-09-04T16:36:02.533Z,26.35
2023-09-04T16:38:31.685Z,26.41
2023-09-04T16:41:00.280Z,26.30
2023-09-04T16:43:27.996Z,26.34
2023-09-04T16:45:57.354Z,26.32
2023-09-04T16:48:25.769Z,26.28
2023-09-04T16:50:57.808Z,26.22
2023-09-04T16:53:25.759Z,26.13
2023-09-04T16:55:53.483Z,26.10
2023-09-04T16:58:22.684Z,26.09
2023-09-04T17:00:51.037Z,26.12
2023-09-04T17:03:20.766Z,25.91
2023-09-04T17:05:48.823Z,25.86
2023-09-04T17:08:16.649Z,25.76
2023-09-04T17:10:44.423Z,25.77
2023-09-04T17:13:12.282Z,25.73
2023-09-04T17:15:40.076Z,25.72
2023-09-04T17:18:07.892Z,25.66
2023-09-04T17:20:37.114Z,25.66
2023-09-04T17:23:05.259Z,25.54
2023-09-04T17:25:38.221Z,25.57
2023-09-04T17:28:06.266Z,25.51
2023-09-04T17:30:34.644Z,25.42
2023-09-04T17:33:02.463Z,25.40
2023-09-04T17:35:30.587Z,25.38
2023-09-04T17:37:59.689Z,25.38
2023-09-04T17:40:27.600Z,25.21
2023-09-04T17:42:55.373Z,25.14
2023-09-04T17:45:23.110Z,25.11
2023-09-04T17:47:50.858Z,25.07
2023-09-04T17:50:18.672Z,24.99
2023-09-04T17:52:46.744Z,24.92
2023-09-04T17:55:16.818Z,24.91
2023-09-04T17:57:44.996Z,24.85
2023-09-04T18:00:13.803Z,24.81
2023-09-04T18:02:41.630Z,24.75
2023-09-04T18:05:09.625Z,24.60
2023-09-04T18:07:37.311Z,24.45
2023-09-04T18:10:05.306Z,24.38
2023-09-04T18:12:34.366Z,24.33
2023-09-04T18:15:02.093Z,24.25
2023-09-04T18:17:29.800Z,24.11
2023-09-04T18:19:57.489Z,24.06
2023-09-04T18:22:25.270Z,24.03
2023-09-04T18:24:54.361Z,23.93
2023-09-04T18:27:22.055Z,23.89
2023-09-04T18:29:51.106Z,23.81
2023-09-04T18:32:18.855Z,23.71
2023-09-04T18:34:46.552Z,23.52
2023-09-04T18:37:14.178Z,23.42
2023-09-04T18:39:41.964Z,23.36
2023-09-04T18:42:09.683Z,23.38
2023-09-04T18:44:37.356Z,23.37
2023-09-04T18:47:08.175Z,23.41
2023-09-04T18:49:35.859Z,23.37
2023-09-04T18:52:05.522Z,23.35
2023-09-04T18:54:33.379Z,23.32
2023-09-04T18:57:01.109Z,23.26
2023-09-04T18:59:30.779Z,23.15
2023-09-04T19:01:58.592Z,23.12
2023-09-04T19:04:27.835Z,23.04
2023-09-04T19:06:55.571Z,22.95
2023-09-04T19:09:23.330Z,22.95
2023-09-04T19:11:51.133Z,22.92
2023-09-04T19:14:18.862Z,22.84
2023-09-04T19:16:46.964Z,22.75
2023-09-04T19:19:14.682Z,22.64
2023-09-04T19:21:43.870Z,22.54
2023-09-04T19:24:11.636Z,22.48
2023-09-04T19:26:39.316Z,22.41
2023-09-04T19:29:07.211Z,22.35
2023-09-04T19:31:34.958Z,22.33
2023-09-04T19:34:02.762Z,22.29
2023-09-04T19:36:30.511Z,22.07
2023-09-04T19:42:55.461Z,21.96
2023-09-04T19:45:23.809Z,22.01
2023-09-04T19:47:51.882Z,22.00
2023-09-04T19:50:19.672Z,21.94
2023-09-04T19:52:47.253Z,21.87
2023-09-04T19:55:14.818Z,21.81
2023-09-04T19:57:42.805Z,21.74
2023-09-04T20:00:12.186Z,21.67
2023-09-04T20:02:44.705Z,21.42
2023-09-04T20:05:12.546Z,21.34
2023-09-04T20:07:40.997Z,21.19
2023-09-04T20:10:08.127Z,21.21
2023-09-04T20:12:35.810Z,21.17
2023-09-04T20:15:03.620Z,21.11
2023-09-04T20:17:32.616Z,21.03
2023-09-04T20:20:00.487Z,20.98
2023-09-04T20:22:28.260Z,20.96
2023-09-04T20:24:56.113Z,20.83
2023-09-04T20:27:23.788Z,20.83
2023-09-04T20:29:51.426Z,20.71
2023-09-04T20:32:22.622Z,20.57
2023-09-04T20:34:51.718Z,20.56
2023-09-04T20:37:19.339Z,20.54
2023-09-04T20:39:47.378Z,20.49
2023-09-04T20:42:14.974Z,20.42
2023-09-04T20:44:42.689Z,20.45
2023-09-04T20:47:10.249Z,20.39
2023-09-04T20:49:40.704Z,20.20
2023-09-04T20:52:10.492Z,20.27
2023-09-04T20:54:38.386Z,20.19
2023-09-04T20:57:06.577Z,20.16
2023-09-04T20:59:34.197Z,20.11
2023-09-04T21:02:01.862Z,19.98
2023-09-04T21:04:29.531Z,19.97
2023-09-04T21:06:57.244Z,19.90
2023-09-04T21:09:25.089Z,19.86
2023-09-04T21:12:10.167Z,19.77
2023-09-04T21:14:55.401Z,19.67
2023-09-04T21:17:40.513Z,19.61
2023-09-04T21:20:26.373Z,19.55
2023-09-04T21:23:11.329Z,19.47
2023-09-04T21:25:58.025Z,19.49
2023-09-04T21:28:43.236Z,19.42
2023-09-04T21:31:28.405Z,19.28
2023-09-04T21:34:13.741Z,19.26
2023-09-04T21:36:58.814Z,19.17
2023-09-04T21:39:44.038Z,19.15
2023-09-04T21:42:30.452Z,19.10
2023-09-04T21:45:15.632Z,19.04
2023-09-04T21:48:00.861Z,19.08
2023-09-04T21:50:46.108Z,19.12
2023-09-04T21:53:31.029Z,19.03
2023-09-04T21:56:16.174Z,18.97
2023-09-04T21:59:02.744Z,18.92
2023-09-04T22:01:48.042Z,18.90
2023-09-04T22:04:33.344Z,18.93
2023-09-04T22:07:18.408Z,18.92
2023-09-04T22:10:03.517Z,18.85
2023-09-04T22:12:48.634Z,18.89
2023-09-04T22:15:34.972Z,18.85
2023-09-04T22:18:35.441Z,18.81
2023-09-04T22:21:20.536Z,18.66
2023-09-04T22:24:05.460Z,18.58
2023-09-04T22:26:50.645Z,18.58
2023-09-04T22:29:35.583Z,18.59
2023-09-04T22:32:22.512Z,18.55
2023-09-04T22:35:07.354Z,18.56
2023-09-04T22:37:52.703Z,18.53
2023-09-04T22:40:38.013Z,18.54
2023-09-04T22:43:23.531Z,18.51
2023-09-04T22:46:08.971Z,18.49
2023-09-04T22:48:55.262Z,18.50
2023-09-04T22:51:40.594Z,18.54
2023-09-04T22:54:25.862Z,18.57
2023-09-04T22:57:11.106Z,18.63
2023-09-04T22:59:56.509Z,18.56
2023-09-04T23:02:41.496Z,18.56
2023-09-04T23:05:28.180Z,18.60
2023-09-04T23:08:13.364Z,18.62
2023-09-04T23:10:59.121Z,18.65
2023-09-04T23:13:44.451Z,18.70
2023-09-04T23:16:29.698Z,18.71
2023-09-04T23:19:14.996Z,18.71
2023-09-04T23:21:45.436Z,18.70
2023-09-04T23:24:14.791Z,18.70
2023-09-04T23:26:43.636Z,18.68
2023-09-04T23:29:12.884Z,18.64
2023-09-04T23:31:45.781Z,18.70
2023-09-04T23:34:15.120Z,18.71
2023-09-04T23:36:51.733Z,18.74
2023-09-04T23:39:42.201Z,18.73
2023-09-04T23:42:27.253Z,18.78
2023-09-04T23:45:15.998Z,18.75
2023-09-04T23:47:48.388Z,18.79
2023-09-04T23:50:16.983Z,18.81
2023-09-04T23:52:46.358Z,18.77
2023-09-04T23:55:15.433Z,18.79
2023-09-04T23:57:43.113Z,18.76
